sensor_id;sensor_type;location;lat;lon;timestamp;P1;durP1;ratioP1;P2;durP2;ratioP2
77174;SDS011;66153;53.488;10.244;2022-12-28T00:02:19;5.38;;;2.38;;
77174;SDS011;66153;53.488;10.244;2022-12-28T00:05:43;4.47;;;2.20;;
77174;SDS011;66153;53.488;10.244;2022-12-28T00:09:07;5.00;;;1.65;;
77174;SDS011;66153;53.488;10.244;2022-12-28T00:12:33;4.18;;;1.88;;
77174;SDS011;66153;53.488;10.244;2022-12-28T00:15:57;4.40;;;2.10;;
77174;SDS011;66153;53.488;10.244;2022-12-28T00:19:21;6.85;;;1.70;;
77174;SDS011;66153;53.488;10.244;2022-12-28T00:22:45;6.55;;;1.98;;
77174;SDS011;66153;53.488;10.244;2022-12-28T00:26:12;5.00;;;1.30;;
77174;SDS011;66153;53.488;10.244;2022-12-28T00:29:36;3.72;;;1.25;;
77174;SDS011;66153;53.488;10.244;2022-12-28T00:33:00;3.80;;;1.65;;
77174;SDS011;66153;53.488;10.244;2022-12-28T00:36:24;4.32;;;1.77;;
77174;SDS011;66153;53.488;10.244;2022-12-28T00:39:48;3.75;;;1.55;;
77174;SDS011;66153;53.488;10.244;2022-12-28T00:43:11;3.95;;;1.60;;
77174;SDS011;66153;53.488;10.244;2022-12-28T00:46:35;5.07;;;1.58;;
77174;SDS011;66153;53.488;10.244;2022-12-28T00:49:59;5.55;;;1.40;;
77174;SDS011;66153;53.488;10.244;2022-12-28T00:53:27;2.42;;;1.17;;
77174;SDS011;66153;53.488;10.244;2022-12-28T00:56:51;2.78;;;1.15;;
77174;SDS011;66153;53.488;10.244;2022-12-28T01:00:15;3.10;;;1.40;;
77174;SDS011;66153;53.488;10.244;2022-12-28T01:03:43;3.17;;;1.05;;
77174;SDS011;66153;53.488;10.244;2022-12-28T01:07:07;3.88;;;1.50;;
77174;SDS011;66153;53.488;10.244;2022-12-28T01:10:31;5.72;;;1.75;;
77174;SDS011;66153;53.488;10.244;2022-12-28T01:13:56;2.40;;;0.90;;
77174;SDS011;66153;53.488;10.244;2022-12-28T01:17:20;5.20;;;1.30;;
77174;SDS011;66153;53.488;10.244;2022-12-28T01:20:44;5.65;;;1.75;;
77174;SDS011;66153;53.488;10.244;2022-12-28T01:24:08;2.45;;;1.20;;
77174;SDS011;66153;53.488;10.244;2022-12-28T01:27:32;3.38;;;1.20;;
77174;SDS011;66153;53.488;10.244;2022-12-28T01:30:56;4.60;;;1.23;;
77174;SDS011;66153;53.488;10.244;2022-12-28T01:34:20;2.92;;;1.30;;
77174;SDS011;66153;53.488;10.244;2022-12-28T01:37:43;2.05;;;0.70;;
77174;SDS011;66153;53.488;10.244;2022-12-28T01:41:09;2.53;;;0.80;;
77174;SDS011;66153;53.488;10.244;2022-12-28T01:44:44;3.30;;;1.20;;
77174;SDS011;66153;53.488;10.244;2022-12-28T01:48:16;2.63;;;1.05;;
77174;SDS011;66153;53.488;10.244;2022-12-28T01:51:54;2.03;;;1.00;;
77174;SDS011;66153;53.488;10.244;2022-12-28T01:55:24;5.85;;;1.20;;
77174;SDS011;66153;53.488;10.244;2022-12-28T01:58:50;3.50;;;0.90;;
77174;SDS011;66153;53.488;10.244;2022-12-28T02:02:16;7.45;;;1.65;;
77174;SDS011;66153;53.488;10.244;2022-12-28T02:05:42;4.30;;;1.27;;
77174;SDS011;66153;53.488;10.244;2022-12-28T02:09:08;5.03;;;1.00;;
77174;SDS011;66153;53.488;10.244;2022-12-28T02:12:34;4.20;;;1.20;;
77174;SDS011;66153;53.488;10.244;2022-12-28T02:15:58;4.97;;;0.90;;
77174;SDS011;66153;53.488;10.244;2022-12-28T02:19:26;2.05;;;0.90;;
77174;SDS011;66153;53.488;10.244;2022-12-28T02:33:30;2.75;;;0.85;;
77174;SDS011;66153;53.488;10.244;2022-12-28T02:37:06;4.18;;;0.80;;
77174;SDS011;66153;53.488;10.244;2022-12-28T02:40:40;1.73;;;0.90;;
77174;SDS011;66153;53.488;10.244;2022-12-28T02:44:05;2.70;;;0.90;;
77174;SDS011;66153;53.488;10.244;2022-12-28T02:47:48;3.30;;;0.82;;
77174;SDS011;66153;53.488;10.244;2022-12-28T02:51:51;3.38;;;0.75;;
77174;SDS011;66153;53.488;10.244;2022-12-28T03:14:41;4.13;;;1.15;;
77174;SDS011;66153;53.488;10.244;2022-12-28T03:21:52;4.25;;;1.13;;
77174;SDS011;66153;53.488;10.244;2022-12-28T03:25:37;2.85;;;1.08;;
77174;SDS011;66153;53.488;10.244;2022-12-28T03:29:22;2.00;;;0.88;;
77174;SDS011;66153;53.488;10.244;2022-12-28T03:33:05;4.15;;;1.17;;
77174;SDS011;66153;53.488;10.244;2022-12-28T03:40:19;4.22;;;1.40;;
77174;SDS011;66153;53.488;10.244;2022-12-28T03:43:53;3.75;;;1.40;;
77174;SDS011;66153;53.488;10.244;2022-12-28T03:47:20;4.85;;;1.30;;
77174;SDS011;66153;53.488;10.244;2022-12-28T03:50:45;5.00;;;1.42;;
77174;SDS011;66153;53.488;10.244;2022-12-28T03:54:12;4.70;;;1.38;;
77174;SDS011;66153;53.488;10.244;2022-12-28T03:57:40;3.50;;;1.38;;
77174;SDS011;66153;53.488;10.244;2022-12-28T04:01:04;3.80;;;1.55;;
77174;SDS011;66153;53.488;10.244;2022-12-28T04:04:28;4.60;;;1.50;;
77174;SDS011;66153;53.488;10.244;2022-12-28T04:07:52;6.35;;;1.95;;
77174;SDS011;66153;53.488;10.244;2022-12-28T04:11:15;8.45;;;1.80;;
77174;SDS011;66153;53.488;10.244;2022-12-28T04:14:39;5.75;;;1.73;;
77174;SDS011;66153;53.488;10.244;2022-12-28T04:18:03;4.88;;;1.80;;
77174;SDS011;66153;53.488;10.244;2022-12-28T04:21:27;3.75;;;1.63;;
77174;SDS011;66153;53.488;10.244;2022-12-28T04:24:51;2.97;;;1.40;;
77174;SDS011;66153;53.488;10.244;2022-12-28T04:28:25;4.78;;;1.95;;
77174;SDS011;66153;53.488;10.244;2022-12-28T04:31:49;4.15;;;1.77;;
77174;SDS011;66153;53.488;10.244;2022-12-28T04:35:12;3.45;;;1.55;;
77174;SDS011;66153;53.488;10.244;2022-12-28T04:38:38;6.05;;;2.00;;
77174;SDS011;66153;53.488;10.244;2022-12-28T04:42:02;4.70;;;2.00;;
77174;SDS011;66153;53.488;10.244;2022-12-28T04:45:25;4.05;;;1.70;;
77174;SDS011;66153;53.488;10.244;2022-12-28T04:48:50;6.03;;;2.47;;
77174;SDS011;66153;53.488;10.244;2022-12-28T04:52:14;5.65;;;2.28;;
77174;SDS011;66153;53.488;10.244;2022-12-28T04:55:38;4.47;;;1.90;;
77174;SDS011;66153;53.488;10.244;2022-12-28T04:59:02;6.25;;;2.22;;
77174;SDS011;66153;53.488;10.244;2022-12-28T05:02:25;5.13;;;2.30;;
77174;SDS011;66153;53.488;10.244;2022-12-28T05:05:49;4.43;;;2.33;;
77174;SDS011;66153;53.488;10.244;2022-12-28T05:09:13;11.88;;;2.60;;
77174;SDS011;66153;53.488;10.244;2022-12-28T05:12:37;7.55;;;2.28;;
77174;SDS011;66153;53.488;10.244;2022-12-28T05:16:05;3.40;;;2.15;;
77174;SDS011;66153;53.488;10.244;2022-12-28T05:19:29;6.10;;;2.00;;
77174;SDS011;66153;53.488;10.244;2022-12-28T05:22:53;6.60;;;2.33;;
77174;SDS011;66153;53.488;10.244;2022-12-28T05:26:18;6.18;;;2.90;;
77174;SDS011;66153;53.488;10.244;2022-12-28T05:29:42;3.05;;;1.77;;
77174;SDS011;66153;53.488;10.244;2022-12-28T05:33:05;4.60;;;2.15;;
77174;SDS011;66153;53.488;10.244;2022-12-28T05:36:29;8.25;;;2.80;;
77174;SDS011;66153;53.488;10.244;2022-12-28T05:38:57;7.50;;;3.00;;
77174;SDS011;66153;53.488;10.244;2022-12-28T05:41:24;8.88;;;3.17;;
77174;SDS011;66153;53.488;10.244;2022-12-28T05:43:50;7.18;;;3.05;;
77174;SDS011;66153;53.488;10.244;2022-12-28T05:46:19;9.77;;;2.95;;
77174;SDS011;66153;53.488;10.244;2022-12-28T05:48:48;7.25;;;3.10;;
77174;SDS011;66153;53.488;10.244;2022-12-28T05:51:14;8.02;;;2.92;;
77174;SDS011;66153;53.488;10.244;2022-12-28T05:53:42;8.77;;;3.03;;
77174;SDS011;66153;53.488;10.244;2022-12-28T05:56:12;5.90;;;2.90;;
77174;SDS011;66153;53.488;10.244;2022-12-28T05:59:35;6.07;;;2.38;;
77174;SDS011;66153;53.488;10.244;2022-12-28T06:02:59;8.38;;;3.10;;
77174;SDS011;66153;53.488;10.244;2022-12-28T06:06:24;7.63;;;3.03;;
77174;SDS011;66153;53.488;10.244;2022-12-28T06:09:48;9.63;;;3.25;;
77174;SDS011;66153;53.488;10.244;2022-12-28T06:13:12;7.93;;;3.78;;
77174;SDS011;66153;53.488;10.244;2022-12-28T06:16:37;6.10;;;3.08;;
77174;SDS011;66153;53.488;10.244;2022-12-28T06:20:01;7.88;;;3.72;;
77174;SDS011;66153;53.488;10.244;2022-12-28T06:23:35;10.55;;;4.53;;
77174;SDS011;66153;53.488;10.244;2022-12-28T06:26:59;9.13;;;3.47;;
77174;SDS011;66153;53.488;10.244;2022-12-28T06:30:23;8.60;;;3.28;;
77174;SDS011;66153;53.488;10.244;2022-12-28T06:33:48;9.60;;;4.38;;
77174;SDS011;66153;53.488;10.244;2022-12-28T06:37:12;10.60;;;3.50;;
77174;SDS011;66153;53.488;10.244;2022-12-28T06:40:36;10.38;;;4.28;;
77174;SDS011;66153;53.488;10.244;2022-12-28T06:44:00;10.35;;;3.80;;
77174;SDS011;66153;53.488;10.244;2022-12-28T06:47:24;8.05;;;3.65;;
77174;SDS011;66153;53.488;10.244;2022-12-28T06:49:49;7.97;;;3.72;;
77174;SDS011;66153;53.488;10.244;2022-12-28T06:52:14;5.40;;;2.80;;
77174;SDS011;66153;53.488;10.244;2022-12-28T06:54:40;9.80;;;3.78;;
77174;SDS011;66153;53.488;10.244;2022-12-28T06:57:58;7.65;;;3.63;;
77174;SDS011;66153;53.488;10.244;2022-12-28T07:01:23;8.38;;;3.55;;
77174;SDS011;66153;53.488;10.244;2022-12-28T07:04:47;6.82;;;2.90;;
77174;SDS011;66153;53.488;10.244;2022-12-28T07:08:10;9.40;;;3.85;;
77174;SDS011;66153;53.488;10.244;2022-12-28T07:11:37;7.18;;;3.45;;
77174;SDS011;66153;53.488;10.244;2022-12-28T07:15:00;5.75;;;3.05;;
77174;SDS011;66153;53.488;10.244;2022-12-28T07:17:26;6.43;;;2.67;;
77174;SDS011;66153;53.488;10.244;2022-12-28T07:20:48;6.03;;;2.47;;
77174;SDS011;66153;53.488;10.244;2022-12-28T07:23:14;7.05;;;2.75;;
77174;SDS011;66153;53.488;10.244;2022-12-28T07:25:39;8.00;;;2.72;;
77174;SDS011;66153;53.488;10.244;2022-12-28T07:28:04;4.13;;;2.50;;
77174;SDS011;66153;53.488;10.244;2022-12-28T07:30:30;5.72;;;2.53;;
77174;SDS011;66153;53.488;10.244;2022-12-28T07:32:55;4.75;;;2.40;;
77174;SDS011;66153;53.488;10.244;2022-12-28T07:35:20;4.85;;;2.58;;
77174;SDS011;66153;53.488;10.244;2022-12-28T07:37:46;4.03;;;2.40;;
77174;SDS011;66153;53.488;10.244;2022-12-28T07:40:11;4.88;;;2.83;;
77174;SDS011;66153;53.488;10.244;2022-12-28T07:42:36;6.30;;;2.67;;
77174;SDS011;66153;53.488;10.244;2022-12-28T07:45:02;6.22;;;2.55;;
77174;SDS011;66153;53.488;10.244;2022-12-28T07:47:28;5.88;;;2.80;;
77174;SDS011;66153;53.488;10.244;2022-12-28T07:49:53;4.15;;;2.55;;
77174;SDS011;66153;53.488;10.244;2022-12-28T07:52:18;4.75;;;2.28;;
77174;SDS011;66153;53.488;10.244;2022-12-28T07:54:44;5.18;;;2.67;;
77174;SDS011;66153;53.488;10.244;2022-12-28T07:57:09;5.60;;;2.28;;
77174;SDS011;66153;53.488;10.244;2022-12-28T07:59:34;4.75;;;2.72;;
77174;SDS011;66153;53.488;10.244;2022-12-28T08:02:00;7.60;;;3.00;;
77174;SDS011;66153;53.488;10.244;2022-12-28T08:04:25;4.07;;;2.25;;
77174;SDS011;66153;53.488;10.244;2022-12-28T08:06:50;4.15;;;2.20;;
77174;SDS011;66153;53.488;10.244;2022-12-28T08:09:16;4.93;;;2.70;;
77174;SDS011;66153;53.488;10.244;2022-12-28T08:11:42;5.45;;;3.63;;
77174;SDS011;66153;53.488;10.244;2022-12-28T08:14:09;4.93;;;2.22;;
77174;SDS011;66153;53.488;10.244;2022-12-28T08:16:35;6.82;;;4.25;;
77174;SDS011;66153;53.488;10.244;2022-12-28T08:19:05;5.72;;;3.13;;
77174;SDS011;66153;53.488;10.244;2022-12-28T08:21:33;5.50;;;2.45;;
77174;SDS011;66153;53.488;10.244;2022-12-28T08:24:03;4.43;;;2.42;;
77174;SDS011;66153;53.488;10.244;2022-12-28T08:26:33;4.47;;;2.30;;
77174;SDS011;66153;53.488;10.244;2022-12-28T08:29:01;4.70;;;2.70;;
77174;SDS011;66153;53.488;10.244;2022-12-28T08:33:54;4.35;;;2.28;;
77174;SDS011;66153;53.488;10.244;2022-12-28T08:36:20;4.47;;;2.63;;
77174;SDS011;66153;53.488;10.244;2022-12-28T08:38:46;5.15;;;2.47;;
77174;SDS011;66153;53.488;10.244;2022-12-28T08:41:12;7.70;;;3.30;;
77174;SDS011;66153;53.488;10.244;2022-12-28T08:43:39;5.72;;;2.55;;
77174;SDS011;66153;53.488;10.244;2022-12-28T08:46:05;5.15;;;2.85;;
77174;SDS011;66153;53.488;10.244;2022-12-28T08:48:33;6.38;;;3.10;;
77174;SDS011;66153;53.488;10.244;2022-12-28T08:51:02;4.70;;;2.53;;
77174;SDS011;66153;53.488;10.244;2022-12-28T08:53:30;4.68;;;2.65;;
77174;SDS011;66153;53.488;10.244;2022-12-28T08:56:01;6.80;;;3.10;;
77174;SDS011;66153;53.488;10.244;2022-12-28T08:58:30;7.75;;;4.10;;
77174;SDS011;66153;53.488;10.244;2022-12-28T09:00:55;6.85;;;3.88;;
77174;SDS011;66153;53.488;10.244;2022-12-28T09:03:20;8.13;;;3.65;;
77174;SDS011;66153;53.488;10.244;2022-12-28T09:05:46;5.90;;;3.00;;
77174;SDS011;66153;53.488;10.244;2022-12-28T09:08:11;6.05;;;3.40;;
77174;SDS011;66153;53.488;10.244;2022-12-28T09:10:36;6.25;;;2.97;;
77174;SDS011;66153;53.488;10.244;2022-12-28T09:13:02;7.15;;;3.70;;
77174;SDS011;66153;53.488;10.244;2022-12-28T09:15:27;6.85;;;3.88;;
77174;SDS011;66153;53.488;10.244;2022-12-28T09:17:52;7.55;;;3.90;;
77174;SDS011;66153;53.488;10.244;2022-12-28T09:20:18;7.70;;;3.72;;
77174;SDS011;66153;53.488;10.244;2022-12-28T09:22:43;8.55;;;4.30;;
77174;SDS011;66153;53.488;10.244;2022-12-28T09:25:08;7.68;;;4.22;;
77174;SDS011;66153;53.488;10.244;2022-12-28T09:27:34;9.45;;;4.88;;
77174;SDS011;66153;53.488;10.244;2022-12-28T09:29:59;10.40;;;5.35;;
77174;SDS011;66153;53.488;10.244;2022-12-28T09:32:24;10.80;;;4.90;;
77174;SDS011;66153;53.488;10.244;2022-12-28T09:34:50;11.05;;;5.68;;
77174;SDS011;66153;53.488;10.244;2022-12-28T09:37:16;11.95;;;6.68;;
77174;SDS011;66153;53.488;10.244;2022-12-28T09:39:41;11.02;;;6.32;;
77174;SDS011;66153;53.488;10.244;2022-12-28T09:44:48;13.10;;;7.30;;
77174;SDS011;66153;53.488;10.244;2022-12-28T09:55:29;8.27;;;4.63;;
77174;SDS011;66153;53.488;10.244;2022-12-28T09:57:56;9.88;;;5.82;;
77174;SDS011;66153;53.488;10.244;2022-12-28T10:00:24;9.90;;;5.43;;
77174;SDS011;66153;53.488;10.244;2022-12-28T10:03:45;8.68;;;4.72;;
77174;SDS011;66153;53.488;10.244;2022-12-28T10:07:11;9.73;;;5.47;;
77174;SDS011;66153;53.488;10.244;2022-12-28T10:10:36;9.13;;;4.32;;
77174;SDS011;66153;53.488;10.244;2022-12-28T10:14:18;9.18;;;4.40;;
77174;SDS011;66153;53.488;10.244;2022-12-28T10:17:43;8.07;;;4.75;;
77174;SDS011;66153;53.488;10.244;2022-12-28T10:21:08;11.68;;;6.00;;
77174;SDS011;66153;53.488;10.244;2022-12-28T10:24:33;8.98;;;5.00;;
77174;SDS011;66153;53.488;10.244;2022-12-28T10:27:56;10.77;;;5.97;;
77174;SDS011;66153;53.488;10.244;2022-12-28T10:35:02;8.32;;;4.95;;
77174;SDS011;66153;53.488;10.244;2022-12-28T10:38:27;6.95;;;4.10;;
77174;SDS011;66153;53.488;10.244;2022-12-28T10:41:52;6.72;;;4.50;;
77174;SDS011;66153;53.488;10.244;2022-12-28T10:45:32;6.88;;;4.07;;
77174;SDS011;66153;53.488;10.244;2022-12-28T10:48:57;9.85;;;5.18;;
77174;SDS011;66153;53.488;10.244;2022-12-28T10:52:22;7.53;;;4.45;;
77174;SDS011;66153;53.488;10.244;2022-12-28T10:56:01;8.80;;;4.72;;
77174;SDS011;66153;53.488;10.244;2022-12-28T10:59:26;7.32;;;4.47;;
77174;SDS011;66153;53.488;10.244;2022-12-28T11:02:51;8.57;;;4.60;;
77174;SDS011;66153;53.488;10.244;2022-12-28T11:06:22;8.65;;;4.60;;
77174;SDS011;66153;53.488;10.244;2022-12-28T11:13:48;6.35;;;3.67;;
77174;SDS011;66153;53.488;10.244;2022-12-28T11:17:20;6.63;;;3.42;;
77174;SDS011;66153;53.488;10.244;2022-12-28T11:20:45;5.85;;;4.07;;
77174;SDS011;66153;53.488;10.244;2022-12-28T11:24:10;8.00;;;4.35;;
77174;SDS011;66153;53.488;10.244;2022-12-28T11:27:36;6.97;;;4.47;;
77174;SDS011;66153;53.488;10.244;2022-12-28T11:31:00;7.55;;;4.70;;
77174;SDS011;66153;53.488;10.244;2022-12-28T11:37:53;7.55;;;4.07;;
77174;SDS011;66153;53.488;10.244;2022-12-28T11:45:02;7.07;;;3.95;;
77174;SDS011;66153;53.488;10.244;2022-12-28T11:48:37;7.72;;;4.47;;
77174;SDS011;66153;53.488;10.244;2022-12-28T12:06:43;6.70;;;4.13;;
77174;SDS011;66153;53.488;10.244;2022-12-28T12:10:13;7.47;;;3.95;;
77174;SDS011;66153;53.488;10.244;2022-12-28T12:14:06;5.32;;;3.15;;
77174;SDS011;66153;53.488;10.244;2022-12-28T12:17:47;5.13;;;2.97;;
77174;SDS011;66153;53.488;10.244;2022-12-28T12:21:26;5.20;;;3.20;;
77174;SDS011;66153;53.488;10.244;2022-12-28T12:24:55;4.35;;;2.42;;
77174;SDS011;66153;53.488;10.244;2022-12-28T12:32:08;3.35;;;2.38;;
77174;SDS011;66153;53.488;10.244;2022-12-28T12:35:49;3.83;;;2.53;;
77174;SDS011;66153;53.488;10.244;2022-12-28T12:53:59;5.40;;;3.13;;
77174;SDS011;66153;53.488;10.244;2022-12-28T12:57:35;5.28;;;2.83;;
77174;SDS011;66153;53.488;10.244;2022-12-28T13:04:46;6.93;;;3.67;;
77174;SDS011;66153;53.488;10.244;2022-12-28T13:08:25;6.50;;;3.63;;
77174;SDS011;66153;53.488;10.244;2022-12-28T13:11:50;6.65;;;3.47;;
77174;SDS011;66153;53.488;10.244;2022-12-28T13:15:14;7.50;;;4.13;;
77174;SDS011;66153;53.488;10.244;2022-12-28T13:18:40;7.68;;;3.88;;
77174;SDS011;66153;53.488;10.244;2022-12-28T13:26:08;7.55;;;4.60;;
77174;SDS011;66153;53.488;10.244;2022-12-28T13:29:40;8.65;;;5.13;;
77174;SDS011;66153;53.488;10.244;2022-12-28T13:33:04;8.45;;;4.72;;
77174;SDS011;66153;53.488;10.244;2022-12-28T13:36:29;8.52;;;4.80;;
77174;SDS011;66153;53.488;10.244;2022-12-28T13:40:09;10.27;;;4.82;;
77174;SDS011;66153;53.488;10.244;2022-12-28T13:50:52;8.23;;;4.60;;
77174;SDS011;66153;53.488;10.244;2022-12-28T13:54:16;10.38;;;5.07;;
77174;SDS011;66153;53.488;10.244;2022-12-28T13:57:43;10.43;;;5.78;;
77174;SDS011;66153;53.488;10.244;2022-12-28T14:01:13;11.25;;;5.93;;
77174;SDS011;66153;53.488;10.244;2022-12-28T14:04:42;10.73;;;5.55;;
77174;SDS011;66153;53.488;10.244;2022-12-28T14:08:07;11.10;;;6.18;;
77174;SDS011;66153;53.488;10.244;2022-12-28T14:11:32;9.65;;;5.22;;
77174;SDS011;66153;53.488;10.244;2022-12-28T14:14:57;10.50;;;5.78;;
77174;SDS011;66153;53.488;10.244;2022-12-28T14:18:20;10.02;;;5.72;;
77174;SDS011;66153;53.488;10.244;2022-12-28T14:21:44;10.38;;;5.47;;
77174;SDS011;66153;53.488;10.244;2022-12-28T14:25:16;12.32;;;6.10;;
77174;SDS011;66153;53.488;10.244;2022-12-28T14:28:47;9.18;;;5.88;;
77174;SDS011;66153;53.488;10.244;2022-12-28T14:32:12;10.93;;;6.15;;
77174;SDS011;66153;53.488;10.244;2022-12-28T14:35:47;7.38;;;4.15;;
77174;SDS011;66153;53.488;10.244;2022-12-28T14:39:23;7.03;;;3.90;;
77174;SDS011;66153;53.488;10.244;2022-12-28T14:42:55;5.78;;;3.38;;
77174;SDS011;66153;53.488;10.244;2022-12-28T14:46:40;7.88;;;3.63;;
77174;SDS011;66153;53.488;10.244;2022-12-28T14:50:16;9.85;;;5.40;;
77174;SDS011;66153;53.488;10.244;2022-12-28T14:53:40;3.90;;;2.53;;
77174;SDS011;66153;53.488;10.244;2022-12-28T14:57:35;6.43;;;3.50;;
77174;SDS011;66153;53.488;10.244;2022-12-28T15:01:04;8.45;;;4.15;;
77174;SDS011;66153;53.488;10.244;2022-12-28T15:07:58;6.30;;;3.47;;
77174;SDS011;66153;53.488;10.244;2022-12-28T15:11:23;5.55;;;2.80;;
77174;SDS011;66153;53.488;10.244;2022-12-28T15:14:48;5.93;;;3.10;;
77174;SDS011;66153;53.488;10.244;2022-12-28T15:18:38;4.60;;;2.95;;
77174;SDS011;66153;53.488;10.244;2022-12-28T15:22:03;6.72;;;3.70;;
77174;SDS011;66153;53.488;10.244;2022-12-28T15:25:26;6.93;;;3.38;;
77174;SDS011;66153;53.488;10.244;2022-12-28T15:28:52;5.93;;;3.50;;
77174;SDS011;66153;53.488;10.244;2022-12-28T15:32:15;5.50;;;3.10;;
77174;SDS011;66153;53.488;10.244;2022-12-28T15:35:40;5.53;;;3.03;;
77174;SDS011;66153;53.488;10.244;2022-12-28T15:39:06;5.57;;;3.20;;
77174;SDS011;66153;53.488;10.244;2022-12-28T15:42:30;5.60;;;3.65;;
77174;SDS011;66153;53.488;10.244;2022-12-28T15:45:55;5.72;;;3.08;;
77174;SDS011;66153;53.488;10.244;2022-12-28T15:49:19;5.72;;;3.40;;
77174;SDS011;66153;53.488;10.244;2022-12-28T15:52:43;9.82;;;6.15;;
77174;SDS011;66153;53.488;10.244;2022-12-28T15:56:17;5.53;;;2.72;;
77174;SDS011;66153;53.488;10.244;2022-12-28T15:59:42;7.32;;;4.13;;
77174;SDS011;66153;53.488;10.244;2022-12-28T16:03:06;13.70;;;7.97;;
77174;SDS011;66153;53.488;10.244;2022-12-28T16:06:30;5.72;;;3.58;;
77174;SDS011;66153;53.488;10.244;2022-12-28T16:09:54;7.53;;;3.90;;
77174;SDS011;66153;53.488;10.244;2022-12-28T16:13:18;10.77;;;6.22;;
77174;SDS011;66153;53.488;10.244;2022-12-28T16:16:42;7.30;;;4.13;;
77174;SDS011;66153;53.488;10.244;2022-12-28T16:20:07;7.03;;;3.90;;
77174;SDS011;66153;53.488;10.244;2022-12-28T16:23:32;12.70;;;6.63;;
77174;SDS011;66153;53.488;10.244;2022-12-28T16:26:56;7.63;;;4.63;;
77174;SDS011;66153;53.488;10.244;2022-12-28T16:30:20;8.52;;;4.70;;
77174;SDS011;66153;53.488;10.244;2022-12-28T16:33:52;8.02;;;4.38;;
77174;SDS011;66153;53.488;10.244;2022-12-28T16:37:17;7.47;;;4.20;;
77174;SDS011;66153;53.488;10.244;2022-12-28T16:40:42;37.05;;;15.20;;
77174;SDS011;66153;53.488;10.244;2022-12-28T16:44:10;8.00;;;4.40;;
77174;SDS011;66153;53.488;10.244;2022-12-28T16:47:35;8.40;;;4.45;;
77174;SDS011;66153;53.488;10.244;2022-12-28T16:50:59;5.32;;;3.17;;
77174;SDS011;66153;53.488;10.244;2022-12-28T16:54:24;5.25;;;2.70;;
77174;SDS011;66153;53.488;10.244;2022-12-28T16:57:48;5.90;;;3.85;;
77174;SDS011;66153;53.488;10.244;2022-12-28T17:01:12;5.13;;;3.05;;
77174;SDS011;66153;53.488;10.244;2022-12-28T17:04:36;6.65;;;4.00;;
77174;SDS011;66153;53.488;10.244;2022-12-28T17:08:03;5.25;;;3.33;;
77174;SDS011;66153;53.488;10.244;2022-12-28T17:11:27;4.45;;;3.10;;
77174;SDS011;66153;53.488;10.244;2022-12-28T17:14:51;5.75;;;3.50;;
77174;SDS011;66153;53.488;10.244;2022-12-28T17:18:15;6.47;;;3.75;;
77174;SDS011;66153;53.488;10.244;2022-12-28T17:21:39;5.30;;;3.05;;
77174;SDS011;66153;53.488;10.244;2022-12-28T17:25:03;7.10;;;4.20;;
77174;SDS011;66153;53.488;10.244;2022-12-28T17:28:27;5.63;;;3.55;;
77174;SDS011;66153;53.488;10.244;2022-12-28T17:31:51;5.68;;;3.10;;
77174;SDS011;66153;53.488;10.244;2022-12-28T17:35:14;9.35;;;5.53;;
77174;SDS011;66153;53.488;10.244;2022-12-28T17:38:39;10.50;;;6.13;;
77174;SDS011;66153;53.488;10.244;2022-12-28T17:42:03;10.40;;;6.20;;
77174;SDS011;66153;53.488;10.244;2022-12-28T17:45:27;10.60;;;6.53;;
77174;SDS011;66153;53.488;10.244;2022-12-28T17:48:53;12.10;;;7.20;;
77174;SDS011;66153;53.488;10.244;2022-12-28T17:52:17;11.27;;;6.53;;
77174;SDS011;66153;53.488;10.244;2022-12-28T17:55:41;10.40;;;6.05;;
77174;SDS011;66153;53.488;10.244;2022-12-28T17:59:06;13.15;;;7.75;;
77174;SDS011;66153;53.488;10.244;2022-12-28T18:02:30;11.63;;;6.97;;
77174;SDS011;66153;53.488;10.244;2022-12-28T18:05:54;11.45;;;7.32;;
77174;SDS011;66153;53.488;10.244;2022-12-28T18:09:18;8.93;;;5.65;;
77174;SDS011;66153;53.488;10.244;2022-12-28T18:12:42;8.93;;;4.82;;
77174;SDS011;66153;53.488;10.244;2022-12-28T18:16:06;7.15;;;4.32;;
77174;SDS011;66153;53.488;10.244;2022-12-28T18:19:30;10.25;;;4.93;;
77174;SDS011;66153;53.488;10.244;2022-12-28T18:22:54;10.57;;;6.90;;
77174;SDS011;66153;53.488;10.244;2022-12-28T18:26:22;10.35;;;5.05;;
77174;SDS011;66153;53.488;10.244;2022-12-28T18:29:46;8.80;;;4.32;;
77174;SDS011;66153;53.488;10.244;2022-12-28T18:33:10;10.20;;;5.30;;
77174;SDS011;66153;53.488;10.244;2022-12-28T18:36:34;8.43;;;4.43;;
77174;SDS011;66153;53.488;10.244;2022-12-28T18:39:58;8.13;;;4.20;;
77174;SDS011;66153;53.488;10.244;2022-12-28T18:43:22;8.65;;;5.07;;
77174;SDS011;66153;53.488;10.244;2022-12-28T18:46:46;7.90;;;4.18;;
77174;SDS011;66153;53.488;10.244;2022-12-28T18:50:10;8.05;;;4.65;;
77174;SDS011;66153;53.488;10.244;2022-12-28T18:53:38;9.15;;;5.05;;
77174;SDS011;66153;53.488;10.244;2022-12-28T18:57:02;8.25;;;4.50;;
77174;SDS011;66153;53.488;10.244;2022-12-28T19:00:26;20.83;;;11.20;;
77174;SDS011;66153;53.488;10.244;2022-12-28T19:03:51;9.68;;;5.30;;
77174;SDS011;66153;53.488;10.244;2022-12-28T19:07:17;6.90;;;4.30;;
77174;SDS011;66153;53.488;10.244;2022-12-28T19:10:46;6.78;;;4.07;;
77174;SDS011;66153;53.488;10.244;2022-12-28T19:14:12;7.05;;;5.13;;
77174;SDS011;66153;53.488;10.244;2022-12-28T19:17:36;7.65;;;3.60;;
77174;SDS011;66153;53.488;10.244;2022-12-28T19:25:00;5.50;;;3.28;;
77174;SDS011;66153;53.488;10.244;2022-12-28T19:28:24;4.90;;;3.60;;
77174;SDS011;66153;53.488;10.244;2022-12-28T19:31:48;5.88;;;4.03;;
77174;SDS011;66153;53.488;10.244;2022-12-28T19:35:12;4.78;;;3.22;;
77174;SDS011;66153;53.488;10.244;2022-12-28T19:38:36;31.73;;;12.80;;
77174;SDS011;66153;53.488;10.244;2022-12-28T19:42:00;6.95;;;4.00;;
77174;SDS011;66153;53.488;10.244;2022-12-28T19:45:24;6.20;;;4.07;;
77174;SDS011;66153;53.488;10.244;2022-12-28T19:48:54;4.63;;;3.10;;
77174;SDS011;66153;53.488;10.244;2022-12-28T19:52:18;6.18;;;3.83;;
77174;SDS011;66153;53.488;10.244;2022-12-28T19:55:42;5.28;;;2.78;;
77174;SDS011;66153;53.488;10.244;2022-12-28T19:59:06;4.75;;;2.80;;
77174;SDS011;66153;53.488;10.244;2022-12-28T20:02:31;4.78;;;3.50;;
77174;SDS011;66153;53.488;10.244;2022-12-28T20:05:55;5.30;;;2.90;;
77174;SDS011;66153;53.488;10.244;2022-12-28T20:09:18;6.97;;;3.75;;
77174;SDS011;66153;53.488;10.244;2022-12-28T20:12:42;5.15;;;2.78;;
77174;SDS011;66153;53.488;10.244;2022-12-28T20:16:06;5.15;;;2.70;;
77174;SDS011;66153;53.488;10.244;2022-12-28T20:19:30;4.63;;;2.50;;
77174;SDS011;66153;53.488;10.244;2022-12-28T20:22:54;5.72;;;3.03;;
77174;SDS011;66153;53.488;10.244;2022-12-28T20:26:18;5.15;;;2.85;;
77174;SDS011;66153;53.488;10.244;2022-12-28T20:29:42;6.78;;;5.13;;
77174;SDS011;66153;53.488;10.244;2022-12-28T20:33:06;4.03;;;2.38;;
77174;SDS011;66153;53.488;10.244;2022-12-28T20:36:30;6.75;;;3.80;;
77174;SDS011;66153;53.488;10.244;2022-12-28T20:39:54;9.75;;;5.97;;
77174;SDS011;66153;53.488;10.244;2022-12-28T20:43:28;5.88;;;4.38;;
77174;SDS011;66153;53.488;10.244;2022-12-28T20:46:54;10.20;;;5.88;;
77174;SDS011;66153;53.488;10.244;2022-12-28T20:50:18;18.50;;;10.00;;
77174;SDS011;66153;53.488;10.244;2022-12-28T20:53:42;5.03;;;3.83;;
77174;SDS011;66153;53.488;10.244;2022-12-28T20:57:06;4.22;;;2.58;;
77174;SDS011;66153;53.488;10.244;2022-12-28T21:00:30;4.28;;;2.50;;
77174;SDS011;66153;53.488;10.244;2022-12-28T21:03:54;6.20;;;2.90;;
77174;SDS011;66153;53.488;10.244;2022-12-28T21:07:18;6.32;;;2.92;;
77174;SDS011;66153;53.488;10.244;2022-12-28T21:10:45;7.22;;;2.95;;
77174;SDS011;66153;53.488;10.244;2022-12-28T21:14:09;5.75;;;2.80;;